Time;durP1;ratioP1;P1;durP2;ratioP2;P2;SDS_P1;SDS_P2;PMS_P1;PMS_P2;Temp;Humidity;BMP_temperature;BMP_pressure;BME280_temperature;BME280_humidity;BME280_pressure;Samples;Min_cycle;Max_cycle;Signal;HPM_P1;HPM_P2
2022/12/05 00:01:39;;;;;;;15.70;7.28;;;5.00;99.90;;;;;;4965406;28;20027;-93
2022/12/05 00:04:08;;;;;;;16.35;7.93;;;5.00;99.90;;;;;;4965028;28;20035;-92
2022/12/05 00:06:36;;;;;;;17.60;7.60;;;5.00;99.90;;;;;;4962844;28;20556;-93
2022/12/05 00:09:02;;;;;;;24.73;9.10;;;5.00;99.90;;;;;;4960125;28;20022;-94
2022/12/05 00:11:30;;;;;;;17.42;8.07;;;5.00;99.90;;;;;;4959009;28;20042;-94
2022/12/05 00:13:58;;;;;;;19.73;8.85;;;5.00;99.90;;;;;;4960634;28;21200;-93
2022/12/05 00:16:26;;;;;;;16.33;9.18;;;5.10;99.90;;;;;;4962217;28;20042;-94
2022/12/05 00:18:52;;;;;;;20.02;9.50;;;5.10;99.90;;;;;;4961097;28;20431;-94
2022/12/05 00:21:23;;;;;;;19.23;9.25;;;5.10;99.90;;;;;;4963289;28;20121;-93
2022/12/05 00:23:51;;;;;;;24.60;10.75;;;5.10;99.90;;;;;;4965149;28;20035;-94
2022/12/05 00:26:17;;;;;;;19.08;9.65;;;5.10;99.90;;;;;;4960681;28;20030;-91
2022/12/05 00:28:43;;;;;;;28.55;9.80;;;5.10;99.90;;;;;;4964635;28;20110;-91
2022/12/05 00:31:11;;;;;;;20.63;9.30;;;5.10;99.90;;;;;;4961896;28;20015;-93
2022/12/05 00:33:37;;;;;;;19.73;9.30;;;5.10;99.90;;;;;;4964060;28;20594;-93
2022/12/05 00:36:08;;;;;;;20.55;8.55;;;5.10;99.90;;;;;;4962108;28;20114;-91
2022/12/05 00:38:35;;;;;;;19.13;8.15;;;5.10;99.90;;;;;;4962838;28;20037;-91
2022/12/05 00:41:09;;;;;;;16.70;7.20;;;5.00;99.90;;;;;;4964364;28;20054;-92
2022/12/05 00:43:35;;;;;;;17.80;8.30;;;5.10;99.90;;;;;;4964105;28;20027;-91
2022/12/05 00:46:02;;;;;;;16.27;8.63;;;5.00;99.90;;;;;;4968094;28;20027;-95
2022/12/05 00:48:28;;;;;;;20.27;9.15;;;5.00;99.90;;;;;;4969355;28;20038;-94
2022/12/05 00:51:07;;;;;;;23.02;10.00;;;5.00;99.90;;;;;;4966666;28;20055;-94
2022/12/05 00:53:33;;;;;;;19.98;8.75;;;5.00;99.90;;;;;;4967163;28;20030;-93
2022/12/05 00:56:04;;;;;;;24.48;9.38;;;5.00;99.90;;;;;;4967194;28;20046;-95
2022/12/05 00:58:31;;;;;;;17.10;8.85;;;5.00;99.90;;;;;;4965831;28;20027;-95
2022/12/05 01:00:57;;;;;;;20.42;8.52;;;5.00;99.90;;;;;;4968154;28;20030;-95
2022/12/05 01:03:23;;;;;;;19.90;7.60;;;5.00;99.90;;;;;;4969966;28;20129;-92
2022/12/05 01:05:48;;;;;;;18.65;7.72;;;5.00;99.90;;;;;;4964147;28;20042;-93
2022/12/05 01:08:14;;;;;;;21.15;10.18;;;5.00;99.90;;;;;;4964498;28;20554;-93
2022/12/05 01:10:40;;;;;;;15.25;7.80;;;5.00;99.90;;;;;;4962130;28;20027;-95
2022/12/05 01:13:05;;;;;;;18.55;7.20;;;4.90;99.90;;;;;;4964276;28;20033;-93
2022/12/05 01:15:35;;;;;;;17.02;7.75;;;5.00;99.90;;;;;;4968614;28;20031;-94
2022/12/05 01:18:01;;;;;;;28.85;8.35;;;4.90;99.90;;;;;;4963784;28;20015;-95
2022/12/05 01:20:28;;;;;;;22.05;7.80;;;5.00;99.90;;;;;;4963908;28;20685;-93
2022/12/05 01:22:54;;;;;;;17.63;7.45;;;5.00;99.90;;;;;;4962231;28;20025;-91
2022/12/05 01:25:19;;;;;;;14.55;6.47;;;5.00;99.90;;;;;;4962234;28;20026;-93
2022/12/05 01:27:45;;;;;;;16.10;7.38;;;5.00;99.90;;;;;;4961288;28;20043;-94
2022/12/05 01:30:11;;;;;;;19.80;7.10;;;5.00;99.90;;;;;;4962352;28;20110;-94
2022/12/05 01:32:37;;;;;;;25.02;7.25;;;5.00;99.90;;;;;;4964285;28;20102;-94
2022/12/05 01:35:02;;;;;;;17.33;6.93;;;5.00;99.90;;;;;;4961046;28;20030;-92
2022/12/05 01:37:28;;;;;;;16.33;5.90;;;5.00;99.90;;;;;;4964542;28;20038;-91
2022/12/05 01:39:54;;;;;;;18.92;6.90;;;5.00;99.90;;;;;;4963534;28;20034;-90
2022/12/05 01:42:19;;;;;;;14.48;6.55;;;5.00;99.90;;;;;;4981230;28;20007;-93
2022/12/05 01:44:48;;;;;;;17.67;7.15;;;5.00;99.90;;;;;;4980339;28;20469;-94
2022/12/05 01:47:16;;;;;;;20.40;6.63;;;5.10;99.90;;;;;;4966987;28;20113;-93
2022/12/05 01:49:43;;;;;;;16.75;6.82;;;5.10;99.90;;;;;;4971817;28;20027;-94
2022/12/05 01:52:21;;;;;;;16.42;6.47;;;5.10;99.90;;;;;;4962497;28;20030;-92
2022/12/05 01:54:49;;;;;;;16.75;6.78;;;5.10;99.90;;;;;;4970800;28;20106;-93
2022/12/05 01:57:15;;;;;;;14.35;6.82;;;5.10;99.90;;;;;;4967844;28;20043;-94
2022/12/05 01:59:45;;;;;;;12.95;5.95;;;5.10;99.90;;;;;;4965788;28;20038;-93
2022/12/05 02:02:12;;;;;;;16.17;6.10;;;5.10;99.90;;;;;;4969036;28;20082;-93
2022/12/05 02:04:49;;;;;;;13.30;6.70;;;5.10;99.90;;;;;;4968875;28;20044;-94
2022/12/05 02:07:15;;;;;;;18.50;6.35;;;5.10;99.90;;;;;;4972648;28;20035;-93
2022/12/05 02:09:41;;;;;;;8.98;5.10;;;5.10;99.90;;;;;;4969405;28;20015;-95
2022/12/05 02:12:07;;;;;;;12.73;5.20;;;5.10;99.90;;;;;;4971453;28;20035;-91
2022/12/05 02:14:50;;;;;;;19.35;5.82;;;5.00;99.90;;;;;;4971017;28;20024;-92
2022/12/05 02:17:46;;;;;;;18.90;5.85;;;5.00;99.90;;;;;;4977912;28;20035;-87
2022/12/05 02:20:34;;;;;;;14.55;5.93;;;5.00;99.90;;;;;;4988353;28;20026;-90
2022/12/05 02:22:59;;;;;;;10.50;5.45;;;4.90;99.90;;;;;;4989097;28;20039;-88
2022/12/05 02:25:50;;;;;;;13.68;5.18;;;4.90;99.90;;;;;;4988710;28;20030;-90
2022/12/05 02:28:39;;;;;;;11.65;5.88;;;4.90;99.90;;;;;;4986710;28;20050;-88
2022/12/05 02:31:33;;;;;;;9.95;6.00;;;4.90;99.90;;;;;;4985417;28;20039;-91
2022/12/05 02:34:08;;;;;;;11.32;5.38;;;4.90;99.90;;;;;;4972119;28;20039;-93
2022/12/05 02:37:08;;;;;;;17.30;6.55;;;4.80;99.90;;;;;;4972372;28;20028;-94
2022/12/05 02:39:55;;;;;;;15.32;7.53;;;4.90;99.90;;;;;;4967697;28;20027;-91
2022/12/05 02:42:26;;;;;;;22.20;8.38;;;4.90;99.90;;;;;;4968799;28;20027;-93
2022/12/05 02:44:56;;;;;;;;;;;4.80;99.90;;;;;;4971494;28;20543;-94
2022/12/05 02:47:26;;;;;;;29.23;9.13;;;4.80;99.90;;;;;;4967884;28;20276;-93
2022/12/05 02:49:54;;;;;;;20.77;8.82;;;4.80;99.90;;;;;;4968899;28;20026;-92
2022/12/05 02:52:21;;;;;;;20.10;7.82;;;4.80;99.90;;;;;;4968019;28;20031;-93
2022/12/05 02:54:50;;;;;;;17.00;7.60;;;4.80;99.90;;;;;;4967247;28;20019;-93
2022/12/05 02:57:16;;;;;;;16.40;6.43;;;4.80;99.90;;;;;;4967290;28;20050;-92
2022/12/05 02:59:42;;;;;;;16.02;7.13;;;4.80;99.90;;;;;;4968312;28;20039;-94
2022/12/05 03:02:20;;;;;;;16.20;6.38;;;4.80;99.90;;;;;;4968768;28;20105;-91
2022/12/05 03:04:45;;;;;;;16.55;6.40;;;4.80;99.90;;;;;;4966790;28;20031;-93
2022/12/05 03:07:12;;;;;;;18.67;6.25;;;4.80;99.90;;;;;;4967246;28;20049;-92
2022/12/05 03:09:46;;;;;;;15.80;6.45;;;4.80;99.90;;;;;;4967998;28;20022;-93
2022/12/05 03:12:25;;;;;;;12.35;6.18;;;4.80;99.90;;;;;;4966728;28;20039;-93
2022/12/05 03:15:01;;;;;;;21.83;6.30;;;4.80;99.90;;;;;;4971933;28;20047;-94
2022/12/05 03:17:36;;;;;;;13.40;5.35;;;4.80;99.90;;;;;;4971950;28;20059;-95
2022/12/05 03:20:06;;;;;;;12.13;5.68;;;4.80;99.90;;;;;;4974214;28;20162;-95
2022/12/05 03:22:56;;;;;;;13.30;4.80;;;4.80;99.90;;;;;;4974967;28;20114;-92
2022/12/05 03:25:28;;;;;;;11.02;4.85;;;4.80;99.90;;;;;;4969304;28;20035;-92
2022/12/05 03:28:05;;;;;;;18.95;5.30;;;4.80;99.90;;;;;;4974620;28;20038;-92
2022/12/05 03:30:37;;;;;;;11.07;5.38;;;4.80;99.90;;;;;;4971306;28;20496;-92
2022/12/05 03:33:11;;;;;;;14.43;5.43;;;4.80;99.90;;;;;;4969117;28;20082;-93
2022/12/05 03:35:46;;;;;;;13.57;5.22;;;4.80;99.90;;;;;;4967917;28;20030;-93
2022/12/05 03:38:51;;;;;;;14.18;5.47;;;4.70;99.90;;;;;;4972164;28;20042;-94
2022/12/05 03:41:25;;;;;;;16.70;6.40;;;4.80;99.90;;;;;;4963787;28;20058;-92
2022/12/05 03:44:20;;;;;;;9.93;4.95;;;4.80;99.90;;;;;;4968319;28;20058;-91
2022/12/05 03:46:52;;;;;;;10.10;4.47;;;4.70;99.90;;;;;;4963569;28;20050;-93
2022/12/05 03:49:39;;;;;;;11.98;4.43;;;4.70;99.90;;;;;;4966776;28;20023;-94
2022/12/05 03:52:16;;;;;;;11.63;4.50;;;4.70;99.90;;;;;;4966936;28;20027;-93
2022/12/05 03:54:53;;;;;;;13.25;4.00;;;4.70;99.90;;;;;;4967355;28;20122;-96
2022/12/05 03:57:22;;;;;;;14.82;4.88;;;4.70;99.90;;;;;;4964821;28;20055;-93
2022/12/05 04:00:04;;;;;;;6.05;3.90;;;4.70;99.90;;;;;;4966515;28;20073;-93
2022/12/05 04:02:45;;;;;;;9.93;3.80;;;4.70;99.90;;;;;;4964754;28;20023;-94
2022/12/05 04:05:20;;;;;;;8.23;3.90;;;4.70;99.90;;;;;;4966081;28;20049;-93
2022/12/05 04:07:48;;;;;;;16.52;5.40;;;4.70;99.90;;;;;;4965376;28;20077;-93
2022/12/05 04:10:23;;;;;;;9.75;3.60;;;4.70;99.90;;;;;;4969498;28;20034;-93
2022/12/05 04:12:53;;;;;;;7.03;3.92;;;4.70;99.90;;;;;;4968570;28;20103;-92
2022/12/05 04:15:24;;;;;;;8.00;2.95;;;4.70;99.90;;;;;;4966489;28;20027;-93
2022/12/05 04:17:59;;;;;;;7.90;2.67;;;4.70;99.90;;;;;;4966370;28;20055;-93
2022/12/05 04:23:21;;;;;;;15.07;3.08;;;4.60;99.90;;;;;;4966117;28;20115;-94
2022/12/05 04:26:17;;;;;;;8.85;2.67;;;4.60;99.90;;;;;;4964571;28;20033;-94
2022/12/05 04:28:57;;;;;;;6.45;2.75;;;4.70;99.90;;;;;;4965366;28;20043;-94
2022/12/05 04:31:38;;;;;;;8.02;3.22;;;4.60;99.90;;;;;;4963089;28;20047;-91
2022/12/05 04:34:08;;;;;;;7.97;3.35;;;4.60;99.90;;;;;;4962688;28;20457;-94
2022/12/05 04:36:56;;;;;;;13.27;2.92;;;4.70;99.90;;;;;;4963675;28;20027;-93
2022/12/05 04:39:43;;;;;;;9.93;2.75;;;4.60;99.90;;;;;;4963053;28;20026;-94
2022/12/05 04:42:19;;;;;;;9.63;3.20;;;4.60;99.90;;;;;;4963070;28;20029;-94
2022/12/05 04:44:53;;;;;;;12.07;3.50;;;4.60;99.90;;;;;;4963593;28;20102;-93
2022/12/05 04:47:24;;;;;;;6.22;3.15;;;4.60;99.90;;;;;;4963813;28;20034;-95
2022/12/05 04:49:52;;;;;;;13.05;3.60;;;4.60;99.90;;;;;;4965949;28;20019;-92
2022/12/05 04:52:18;;;;;;;9.35;3.00;;;4.60;99.90;;;;;;4963723;28;20031;-94
2022/12/05 04:55:01;;;;;;;8.38;4.20;;;4.60;99.90;;;;;;4964532;28;20023;-93
2022/12/05 04:57:32;;;;;;;7.82;3.50;;;4.60;99.90;;;;;;4962938;28;20038;-95
2022/12/05 04:59:58;;;;;;;14.68;3.45;;;4.60;99.90;;;;;;4963883;28;20023;-94
2022/12/05 05:02:33;;;;;;;9.38;3.10;;;4.60;99.90;;;;;;4966349;28;20123;-93
2022/12/05 05:05:01;;;;;;;9.13;3.35;;;4.60;99.90;;;;;;4970445;28;20114;-94
2022/12/05 05:07:27;;;;;;;11.90;3.33;;;4.70;99.90;;;;;;4969000;28;20039;-95
2022/12/05 05:09:54;;;;;;;9.77;3.30;;;4.60;99.90;;;;;;4963454;28;20050;-93
2022/12/05 05:12:20;;;;;;;8.95;4.25;;;4.60;99.90;;;;;;4965785;28;20105;-95
2022/12/05 05:14:45;;;;;;;18.83;4.32;;;4.60;99.90;;;;;;4963136;28;20021;-94
2022/12/05 05:17:11;;;;;;;15.07;4.35;;;4.60;99.90;;;;;;4963951;28;20117;-95
2022/12/05 05:19:37;;;;;;;11.63;5.30;;;4.70;99.90;;;;;;4962565;28;20126;-95
2022/12/05 05:22:02;;;;;;;8.77;3.72;;;4.60;99.90;;;;;;4961206;28;20508;-93
2022/12/05 05:24:28;;;;;;;12.80;2.92;;;4.70;99.90;;;;;;4963039;28;20019;-93
2022/12/05 05:26:53;;;;;;;15.63;3.75;;;4.70;99.90;;;;;;4964788;28;20039;-94
2022/12/05 05:29:19;;;;;;;9.77;3.35;;;4.70;99.90;;;;;;4961730;28;20027;-93
2022/12/05 05:31:45;;;;;;;7.07;3.10;;;4.70;99.90;;;;;;4962907;28;20111;-94
2022/12/05 05:34:14;;;;;;;10.15;3.90;;;4.70;99.90;;;;;;4964032;28;20031;-94
2022/12/05 05:36:41;;;;;;;12.43;3.40;;;4.60;99.90;;;;;;4961463;28;20074;-95
2022/12/05 05:39:12;;;;;;;10.57;3.53;;;4.70;99.90;;;;;;4963986;28;20030;-93
2022/12/05 05:41:37;;;;;;;6.60;3.17;;;4.70;99.90;;;;;;4962774;28;20025;-93
2022/12/05 05:44:04;;;;;;;11.52;3.50;;;4.70;99.90;;;;;;4962599;28;20144;-93
2022/12/05 05:46:31;;;;;;;7.22;3.22;;;4.70;99.90;;;;;;4966570;28;20063;-90
2022/12/05 05:48:57;;;;;;;8.95;3.30;;;4.70;99.90;;;;;;4965403;28;20038;-95
2022/12/05 05:51:28;;;;;;;8.82;2.65;;;4.70;99.90;;;;;;4963587;28;20046;-93
2022/12/05 05:53:54;;;;;;;8.40;2.60;;;4.70;99.90;;;;;;4963191;28;20098;-94
2022/12/05 05:56:20;;;;;;;7.63;2.45;;;4.70;99.90;;;;;;4961849;28;20551;-95
2022/12/05 05:58:46;;;;;;;7.18;2.55;;;4.70;99.90;;;;;;4961671;28;20018;-93
2022/12/05 06:01:15;;;;;;;6.85;2.53;;;4.70;99.90;;;;;;4961992;28;20110;-94
2022/12/05 06:03:41;;;;;;;12.88;2.60;;;4.70;99.90;;;;;;4961566;28;20035;-95
2022/12/05 06:06:10;;;;;;;7.53;2.67;;;4.70;99.90;;;;;;4962707;28;20113;-94
2022/12/05 06:08:38;;;;;;;10.15;3.75;;;4.70;99.90;;;;;;4963154;28;20722;-94
2022/12/05 06:11:05;;;;;;;12.27;3.38;;;4.70;99.90;;;;;;4965055;28;20023;-94
2022/12/05 06:13:32;;;;;;;11.73;3.03;;;4.70;99.90;;;;;;4963398;28;20027;-93
2022/12/05 06:15:57;;;;;;;7.57;3.97;;;4.70;99.90;;;;;;4962447;28;20026;-91
2022/12/05 06:18:23;;;;;;;14.60;3.80;;;4.70;99.90;;;;;;4962751;28;20031;-93
2022/12/05 06:20:56;;;;;;;15.45;5.50;;;4.70;99.90;;;;;;4963107;28;20023;-91
2022/12/05 06:23:23;;;;;;;12.75;3.92;;;4.70;99.90;;;;;;4962492;28;20034;-92
2022/12/05 06:25:51;;;;;;;7.30;3.35;;;4.70;99.90;;;;;;4961332;28;20019;-93
2022/12/05 06:28:18;;;;;;;14.20;3.60;;;4.70;99.90;;;;;;4962282;28;20035;-95
2022/12/05 06:30:44;;;;;;;9.15;3.10;;;4.70;99.90;;;;;;4961176;28;20023;-93
2022/12/05 06:33:10;;;;;;;10.82;3.50;;;4.70;99.90;;;;;;4962925;28;20078;-94
2022/12/05 06:35:36;;;;;;;10.93;2.88;;;4.70;99.90;;;;;;4964573;28;20027;-95
2022/12/05 06:38:01;;;;;;;9.20;3.28;;;4.70;99.90;;;;;;4967130;28;20027;-92
2022/12/05 06:40:27;;;;;;;9.38;2.55;;;4.70;99.90;;;;;;4965392;28;20025;-91
2022/12/05 06:42:52;;;;;;;10.57;3.70;;;4.70;99.90;;;;;;4963049;28;20039;-92
2022/12/05 06:45:18;;;;;;;13.98;4.22;;;4.70;99.90;;;;;;4966543;28;20054;-92
2022/12/05 06:47:44;;;;;;;12.02;4.30;;;4.70;99.90;;;;;;4964619;28;20031;-93
2022/12/05 06:50:10;;;;;;;7.47;3.05;;;4.70;99.90;;;;;;4964779;28;20028;-91
2022/12/05 06:52:35;;;;;;;9.35;2.60;;;4.70;99.90;;;;;;4964988;28;20456;-91
2022/12/05 06:55:01;;;;;;;10.15;2.80;;;4.70;99.90;;;;;;4963377;28;20027;-91
2022/12/05 06:57:27;;;;;;;10.95;2.83;;;4.80;99.90;;;;;;4964210;28;20019;-93
2022/12/05 07:01:37;;;;;;;9.45;2.58;;;4.80;99.90;;;;;;4964145;28;20061;-90
2022/12/05 07:02:42;;;;;;;8.63;3.13;;;4.70;99.90;;;;;;4966014;28;20102;-93
2022/12/05 07:05:09;;;;;;;11.63;4.25;;;4.70;99.90;;;;;;4965386;28;20074;-94
2022/12/05 07:07:35;;;;;;;12.23;2.50;;;4.70;99.90;;;;;;4966931;28;20547;-93
2022/12/05 07:10:01;;;;;;;9.85;2.88;;;4.70;99.90;;;;;;4971314;28;20023;-93
2022/12/05 07:12:26;;;;;;;10.82;2.50;;;4.70;99.90;;;;;;4975545;28;20473;-92
2022/12/05 07:14:52;;;;;;;11.38;3.05;;;4.70;99.90;;;;;;4978674;28;20031;-93
2022/12/05 07:17:19;;;;;;;9.68;2.85;;;4.70;99.90;;;;;;4975577;28;20035;-93
2022/12/05 07:19:48;;;;;;;8.70;2.92;;;4.70;99.90;;;;;;4968331;28;20016;-93
2022/12/05 07:22:13;;;;;;;13.52;3.08;;;4.60;99.90;;;;;;4967832;28;20031;-91
2022/12/05 07:24:39;;;;;;;9.43;2.75;;;4.70;99.90;;;;;;4968333;28;20451;-92
2022/12/05 07:27:05;;;;;;;9.77;3.47;;;4.70;99.90;;;;;;4966313;28;20497;-93
2022/12/05 07:29:31;;;;;;;8.10;2.78;;;4.70;99.90;;;;;;4966958;28;20031;-94
2022/12/05 07:31:56;;;;;;;10.70;3.53;;;4.70;99.90;;;;;;4967522;28;20525;-93
2022/12/05 07:34:22;;;;;;;16.83;3.45;;;4.70;99.90;;;;;;4966053;28;20449;-93
2022/12/05 07:36:48;;;;;;;6.68;2.92;;;4.70;99.90;;;;;;4966457;28;20106;-94
2022/12/05 07:39:13;;;;;;;9.65;3.50;;;4.70;99.90;;;;;;4966654;28;20525;-94
2022/12/05 07:41:39;;;;;;;15.02;4.85;;;4.70;99.90;;;;;;4968738;28;20049;-93
2022/12/05 07:44:04;;;;;;;11.13;4.07;;;4.70;99.90;;;;;;4971620;28;20070;-93
2022/12/05 07:46:30;;;;;;;17.08;4.75;;;4.60;99.90;;;;;;4971233;28;20051;-91
2022/12/05 07:48:56;;;;;;;12.65;4.75;;;4.60;99.90;;;;;;4974909;28;20016;-94
2022/12/05 07:51:22;;;;;;;18.45;5.00;;;4.60;99.90;;;;;;4970190;28;20058;-94
2022/12/05 07:53:49;;;;;;;6.55;4.03;;;4.60;99.90;;;;;;4964950;28;20035;-92
2022/12/05 07:56:17;;;;;;;10.27;4.63;;;4.60;99.90;;;;;;4965297;28;20853;-93
2022/12/05 07:58:44;;;;;;;14.07;4.40;;;4.60;99.90;;;;;;4965486;28;20035;-94
2022/12/05 08:01:12;;;;;;;11.77;4.20;;;4.60;99.90;;;;;;4966141;28;20031;-93
2022/12/05 08:03:38;;;;;;;9.10;3.78;;;4.60;99.90;;;;;;4963134;28;20034;-93
2022/12/05 08:06:10;;;;;;;13.60;4.10;;;4.60;99.90;;;;;;4964196;28;20015;-92
2022/12/05 08:08:36;;;;;;;13.02;3.72;;;4.60;99.90;;;;;;4966845;28;20181;-91
2022/12/05 08:11:10;;;;;;;10.40;3.60;;;4.60;99.90;;;;;;4973021;28;20496;-91
2022/12/05 08:13:37;;;;;;;6.88;3.38;;;4.60;99.90;;;;;;4967542;28;20055;-93
2022/12/05 08:16:04;;;;;;;12.07;4.43;;;4.60;99.90;;;;;;4968610;28;20051;-93
2022/12/05 08:18:31;;;;;;;11.07;3.47;;;4.60;99.90;;;;;;4963410;28;20033;-94
2022/12/05 08:21:10;;;;;;;13.20;3.97;;;4.70;99.90;;;;;;4966035;28;20079;-89
2022/12/05 08:23:37;;;;;;;12.00;3.97;;;4.70;99.90;;;;;;4969644;28;20043;-92
2022/12/05 08:26:19;;;;;;;12.90;3.40;;;4.70;99.90;;;;;;4968508;28;20023;-92
2022/12/05 08:28:45;;;;;;;6.50;3.50;;;4.80;99.90;;;;;;4966682;28;20499;-91
2022/12/05 08:31:16;;;;;;;6.97;3.40;;;4.80;99.90;;;;;;4965813;28;20469;-92
2022/12/05 08:33:43;;;;;;;10.57;3.67;;;4.80;99.90;;;;;;4962437;28;20117;-93
2022/12/05 08:36:11;;;;;;;11.70;3.80;;;4.80;99.90;;;;;;4961852;28;20027;-93
2022/12/05 08:38:37;;;;;;;9.18;3.85;;;4.80;99.90;;;;;;4962511;28;20177;-92
2022/12/05 08:41:05;;;;;;;9.68;3.60;;;4.80;99.90;;;;;;4961553;28;20477;-93
2022/12/05 08:43:32;;;;;;;11.35;4.03;;;4.80;99.90;;;;;;4961748;28;20077;-94
2022/12/05 08:45:59;;;;;;;17.05;4.07;;;4.90;99.90;;;;;;4961796;28;20111;-95
2022/12/05 08:48:28;;;;;;;11.63;3.83;;;4.80;99.90;;;;;;4962556;28;20464;-95
2022/12/05 08:50:54;;;;;;;15.20;4.15;;;4.90;99.90;;;;;;4965370;28;20033;-95
2022/12/05 08:53:20;;;;;;;8.00;3.50;;;4.90;99.90;;;;;;4965972;28;20034;-94
2022/12/05 08:55:46;;;;;;;14.32;3.53;;;4.90;99.90;;;;;;4962411;28;20063;-94
2022/12/05 08:58:12;;;;;;;7.65;2.92;;;4.90;99.90;;;;;;4962815;28;20019;-94
2022/12/05 09:00:38;;;;;;;14.25;4.38;;;4.90;99.90;;;;;;4964169;28;20110;-93
2022/12/05 09:03:04;;;;;;;10.90;4.00;;;4.90;99.90;;;;;;4963533;28;20089;-92
2022/12/05 09:05:29;;;;;;;14.05;4.70;;;4.90;99.90;;;;;;4963413;28;20026;-92
2022/12/05 09:07:56;;;;;;;11.27;4.38;;;4.90;99.90;;;;;;4962031;28;20511;-95
2022/12/05 09:10:22;;;;;;;10.45;4.32;;;4.90;99.90;;;;;;4963107;28;20023;-92
2022/12/05 09:12:49;;;;;;;10.80;4.53;;;4.90;99.90;;;;;;4965001;28;20066;-94
2022/12/05 09:15:16;;;;;;;16.60;3.83;;;4.90;99.90;;;;;;4960885;28;20162;-93
2022/12/05 09:17:42;;;;;;;16.85;4.95;;;5.00;99.90;;;;;;4962198;28;20028;-92
2022/12/05 09:20:10;;;;;;;10.20;3.55;;;5.00;99.90;;;;;;4961525;28;20019;-93
2022/12/05 09:22:36;;;;;;;15.27;5.53;;;5.00;99.90;;;;;;4961864;28;20082;-92
2022/12/05 09:25:03;;;;;;;13.65;4.53;;;5.00;99.90;;;;;;4962736;28;20018;-93
2022/12/05 09:27:28;;;;;;;9.38;3.60;;;5.00;99.90;;;;;;4961622;28;20034;-93
2022/12/05 09:29:54;;;;;;;14.82;3.72;;;5.00;99.90;;;;;;4961753;28;20099;-91
2022/12/05 09:32:20;;;;;;;15.13;5.13;;;5.00;99.90;;;;;;4961871;28;20092;-92
2022/12/05 09:34:46;;;;;;;11.15;3.58;;;5.00;99.90;;;;;;4961144;28;20114;-94
2022/12/05 09:37:12;;;;;;;10.23;3.65;;;5.00;99.90;;;;;;4965863;28;20027;-91
2022/12/05 09:39:38;;;;;;;15.07;3.15;;;5.10;99.90;;;;;;4964435;28;20023;-93
2022/12/05 09:42:17;;;;;;;11.57;3.67;;;5.00;99.90;;;;;;4966948;28;20038;-93
2022/12/05 09:44:42;;;;;;;13.00;3.90;;;5.00;99.90;;;;;;4975090;28;20019;-93
2022/12/05 09:47:37;;;;;;;13.02;3.95;;;5.10;99.90;;;;;;4963189;28;20046;-93
2022/12/05 09:50:18;;;;;;;10.10;3.58;;;5.10;99.90;;;;;;4955433;28;20077;-94
2022/12/05 09:52:54;;;;;;;;;;;5.10;99.90;;;;;;4966355;28;20082;-93
2022/12/05 09:55:20;;;;;;;6.72;3.38;;;5.10;99.90;;;;;;4965986;28;19910;-93
2022/12/05 09:57:57;;;;;;;9.90;2.95;;;5.10;99.90;;;;;;4960626;28;20098;-94
2022/12/05 10:00:25;;;;;;;13.02;3.70;;;5.10;99.90;;;;;;4973326;28;20024;-93
2022/12/05 10:02:59;;;;;;;8.75;3.58;;;5.10;99.90;;;;;;4969912;28;20053;-93
2022/12/05 10:05:46;;;;;;;10.80;3.60;;;5.10;99.90;;;;;;4966571;28;20022;-92
2022/12/05 10:08:22;;;;;;;11.23;3.67;;;5.10;99.90;;;;;;4962065;28;20047;-91
2022/12/05 10:11:13;;;;;;;9.68;2.95;;;5.10;99.90;;;;;;4965438;28;20046;-94
2022/12/05 10:13:56;;;;;;;17.77;4.35;;;5.10;99.90;;;;;;4972269;28;20035;-94
2022/12/05 10:16:40;;;;;;;10.57;3.95;;;5.10;99.90;;;;;;4969491;28;20940;-93
2022/12/05 10:19:31;;;;;;;11.93;4.18;;;5.20;99.90;;;;;;4966226;28;20034;-95
2022/12/05 10:22:09;;;;;;;11.27;3.80;;;5.10;99.90;;;;;;4969583;28;20042;-94
2022/12/05 10:24:41;;;;;;;6.95;3.50;;;5.20;99.90;;;;;;4970370;28;20035;-94
2022/12/05 10:27:13;;;;;;;12.40;4.70;;;5.20;99.90;;;;;;4968853;28;20023;-94
2022/12/05 10:29:46;;;;;;;11.55;4.35;;;5.20;99.90;;;;;;4967267;28;20023;-94
2022/12/05 10:32:19;;;;;;;13.02;3.80;;;5.20;99.90;;;;;;4968333;28;20031;-94
2022/12/05 10:34:45;;;;;;;9.55;3.83;;;5.30;99.90;;;;;;4969638;28;20087;-94
2022/12/05 10:37:20;;;;;;;13.25;4.18;;;5.20;99.90;;;;;;4972811;28;20031;-95
2022/12/05 10:39:48;;;;;;;11.70;4.13;;;5.30;99.90;;;;;;4978208;28;20030;-94
2022/12/05 10:42:27;;;;;;;10.50;4.20;;;5.30;99.90;;;;;;4972537;28;20461;-95
2022/12/05 10:44:58;;;;;;;14.30;3.80;;;5.30;99.90;;;;;;4970872;28;20023;-93
2022/12/05 10:47:24;;;;;;;11.63;3.67;;;5.30;99.90;;;;;;4966965;28;20046;-94
2022/12/05 10:49:51;;;;;;;12.45;3.83;;;5.30;99.90;;;;;;4975412;28;20023;-93
2022/12/05 10:52:18;;;;;;;13.85;3.92;;;5.30;99.90;;;;;;4976055;28;20033;-92
2022/12/05 10:54:54;;;;;;;12.57;4.13;;;5.40;99.90;;;;;;4973666;28;20032;-94
2022/12/05 10:57:26;;;;;;;11.27;4.05;;;5.40;99.90;;;;;;4972476;28;20038;-94
2022/12/05 10:59:53;;;;;;;12.48;4.00;;;5.40;99.90;;;;;;4971282;28;20047;-93
2022/12/05 11:02:26;;;;;;;11.93;3.65;;;5.40;99.90;;;;;;4967758;28;20047;-93
2022/12/05 11:04:53;;;;;;;13.63;4.57;;;5.40;99.90;;;;;;4965966;28;20101;-92
2022/12/05 11:07:42;;;;;;;17.33;5.47;;;5.50;99.90;;;;;;4966288;28;20203;-94
2022/12/05 11:10:34;;;;;;;10.65;3.45;;;5.40;99.90;;;;;;4961602;28;20070;-94
2022/12/05 11:13:01;;;;;;;10.82;3.28;;;5.40;99.90;;;;;;4967589;28;20042;-94
2022/12/05 11:15:31;;;;;;;6.28;3.28;;;5.50;99.90;;;;;;4964781;28;20027;-94
2022/12/05 11:18:31;;;;;;;16.73;4.68;;;5.50;99.90;;;;;;4963333;28;20031;-94
2022/12/05 11:21:12;;;;;;;10.43;3.80;;;5.50;99.90;;;;;;4963136;28;20031;-93
2022/12/05 11:23:38;;;;;;;9.98;3.58;;;5.50;99.90;;;;;;4962857;28;20282;-94
2022/12/05 11:26:34;;;;;;;11.75;3.78;;;5.50;99.90;;;;;;4965454;28;20062;-93
2022/12/05 11:29:01;;;;;;;10.50;4.07;;;5.50;99.90;;;;;;4963126;28;20039;-94
2022/12/05 11:31:29;;;;;;;8.63;4.00;;;5.50;99.90;;;;;;4964006;28;20019;-93
2022/12/05 11:34:11;;;;;;;11.52;4.25;;;5.60;99.90;;;;;;4963088;28;20508;-93
2022/12/05 11:36:42;;;;;;;12.68;4.18;;;5.60;99.90;;;;;;4964543;28;20523;-94
2022/12/05 11:39:11;;;;;;;10.25;4.18;;;5.60;99.90;;;;;;4968295;28;20023;-93
2022/12/05 11:42:03;;;;;;;15.73;4.45;;;5.60;99.90;;;;;;4972202;28;20031;-93
2022/12/05 11:44:56;;;;;;;17.20;4.43;;;5.60;99.90;;;;;;4964945;28;20480;-92
2022/12/05 11:48:01;;;;;;;16.50;4.18;;;5.60;99.90;;;;;;4965092;28;20105;-92
2022/12/05 11:50:53;;;;;;;12.43;4.35;;;5.70;99.90;;;;;;4965328;28;20027;-92
2022/12/05 11:53:41;;;;;;;13.77;4.38;;;5.70;99.90;;;;;;4963512;28;20027;-94
2022/12/05 11:56:40;;;;;;;8.68;4.05;;;5.70;99.90;;;;;;4964379;28;20592;-91
2022/12/05 11:59:31;;;;;;;13.13;3.97;;;5.70;99.90;;;;;;4961638;28;20026;-94
2022/12/05 12:02:21;;;;;;;12.60;4.35;;;5.70;99.90;;;;;;4962510;28;20035;-94
2022/12/05 12:04:53;;;;;;;11.60;4.03;;;5.70;99.90;;;;;;4968243;28;20039;-95
2022/12/05 12:08:03;;;;;;;16.23;4.70;;;5.70;99.90;;;;;;4966276;28;20051;-93
2022/12/05 12:10:50;;;;;;;10.32;4.38;;;5.70;99.90;;;;;;4921138;29;20016;-96
2022/12/05 12:13:42;;;;;;;12.80;3.90;;;5.70;99.90;;;;;;4927900;29;20032;-95
2022/12/05 12:16:49;;;;;;;9.30;4.45;;;5.70;99.90;;;;;;4922173;29;20028;-96
2022/12/05 12:19:53;;;;;;;7.50;4.20;;;5.70;99.90;;;;;;4921079;29;20127;-94
2022/12/05 12:22:52;;;;;;;8.63;3.65;;;5.70;99.90;;;;;;4912157;29;20047;-92
2022/12/05 12:25:37;;;;;;;12.77;4.28;;;5.70;99.90;;;;;;4917736;29;20079;-94
2022/12/05 12:28:35;;;;;;;9.82;4.15;;;5.70;99.90;;;;;;4923467;29;20028;-94
2022/12/05 12:31:22;;;;;;;10.75;3.70;;;5.70;99.90;;;;;;4924592;29;20032;-90
2022/12/05 12:34:27;;;;;;;10.02;3.97;;;5.80;99.90;;;;;;4926093;29;20119;-94
2022/12/05 12:37:13;;;;;;;11.40;3.90;;;5.80;99.90;;;;;;4914747;29;20024;-95
2022/12/05 12:39:55;;;;;;;12.02;4.22;;;5.80;99.90;;;;;;4929751;29;20026;-94
2022/12/05 12:42:28;;;;;;;10.32;3.78;;;5.80;99.90;;;;;;4925145;29;20071;-94
2022/12/05 12:45:25;;;;;;;9.35;3.40;;;5.80;99.90;;;;;;4969371;28;20485;-94
2022/12/05 12:48:08;;;;;;;9.60;3.40;;;5.80;99.90;;;;;;4971780;28;20049;-94
2022/12/05 12:50:39;;;;;;;11.85;3.85;;;5.80;99.90;;;;;;4980229;28;20023;-95
2022/12/05 12:53:39;;;;;;;11.15;3.88;;;5.80;99.90;;;;;;4985965;28;20033;-94
2022/12/05 12:56:27;;;;;;;17.40;4.67;;;5.80;99.90;;;;;;4985857;28;20046;-94
2022/12/05 12:58:59;;;;;;;9.30;3.67;;;5.80;99.90;;;;;;4985877;28;20031;-94
2022/12/05 13:01:39;;;;;;;7.88;3.20;;;5.80;99.90;;;;;;4983093;28;20043;-95
2022/12/05 13:04:16;;;;;;;6.60;3.45;;;5.80;99.90;;;;;;4978594;28;20046;-94
2022/12/05 13:06:50;;;;;;;9.23;3.42;;;5.80;99.90;;;;;;4971668;28;20124;-91
2022/12/05 13:09:52;;;;;;;15.30;3.97;;;5.80;99.90;;;;;;4970837;28;20023;-94
2022/12/05 13:12:25;;;;;;;16.10;4.15;;;5.90;99.90;;;;;;4973391;28;20035;-91
2022/12/05 13:14:57;;;;;;;10.73;3.53;;;5.90;99.90;;;;;;4983672;28;20073;-91
2022/12/05 13:17:23;;;;;;;6.38;3.42;;;5.90;99.90;;;;;;4985866;28;20006;-92
2022/12/05 13:19:51;;;;;;;12.73;4.88;;;5.90;99.90;;;;;;4984632;28;20043;-93
2022/12/05 13:22:22;;;;;;;10.32;3.83;;;5.90;99.90;;;;;;4983228;28;20023;-92